createdAt,value
2018-05-07T00:01:50.334Z,84.00
2018-05-07T00:04:17.901Z,84.40
2018-05-07T00:06:45.366Z,85.20
2018-05-07T00:09:12.884Z,85.50
2018-05-07T00:11:41.219Z,84.60
2018-05-07T00:17:16.751Z,85.00
2018-05-07T00:19:45.025Z,86.40
2018-05-07T00:22:12.571Z,86.30
2018-05-07T00:24:40.060Z,86.30
2018-05-07T00:27:07.559Z,86.30
2018-05-07T00:29:35.844Z,86.70
2018-05-07T00:32:04.111Z,86.70
2018-05-07T00:34:31.743Z,86.60
2018-05-07T00:36:59.251Z,86.40
2018-05-07T00:39:26.786Z,86.90
2018-05-07T00:41:54.294Z,87.60
2018-05-07T00:44:21.799Z,87.20
2018-05-07T00:46:50.054Z,87.40
2018-05-07T00:49:17.559Z,87.40
2018-05-07T00:51:45.870Z,88.30
2018-05-07T00:54:13.391Z,88.20
2018-05-07T00:56:40.907Z,88.70
2018-05-07T00:59:08.415Z,88.30
2018-05-07T01:01:56.176Z,88.90
2018-05-07T01:04:23.680Z,88.20
2018-05-07T01:06:51.207Z,89.30
2018-05-07T01:09:18.711Z,89.40
2018-05-07T01:11:46.980Z,89.70
2018-05-07T01:14:14.507Z,89.70
2018-05-07T01:16:42.048Z,89.70
2018-05-07T01:19:10.325Z,90.50
2018-05-07T01:21:38.615Z,90.40
2018-05-07T01:24:06.876Z,90.90
2018-05-07T01:26:34.423Z,90.50
2018-05-07T01:29:01.925Z,90.50
2018-05-07T01:31:29.422Z,90.60
2018-05-07T01:33:57.696Z,90.80
2018-05-07T01:36:25.192Z,90.70
2018-05-07T01:38:52.707Z,91.00
2018-05-07T01:41:20.235Z,91.00
2018-05-07T01:43:48.544Z,91.60
2018-05-07T01:46:16.078Z,91.60
2018-05-07T01:48:44.361Z,92.00
2018-05-07T01:51:12.641Z,92.30
2018-05-07T01:53:40.181Z,92.20
2018-05-07T01:56:07.674Z,92.40
2018-05-07T01:58:35.212Z,93.00
2018-05-07T02:01:02.715Z,93.00
2018-05-07T02:03:30.242Z,93.10
2018-05-07T02:05:57.775Z,92.80
2018-05-07T02:08:25.264Z,92.80
2018-05-07T02:10:52.764Z,92.90
2018-05-07T02:13:20.289Z,92.90
2018-05-07T02:15:48.585Z,93.70
2018-05-07T02:18:16.892Z,94.00
2018-05-07T02:20:44.453Z,93.90
2018-05-07T02:23:11.985Z,94.10
2018-05-07T02:25:39.504Z,94.60
2018-05-07T02:28:07.007Z,94.80
2018-05-07T02:30:34.505Z,95.00
2018-05-07T02:33:02.024Z,95.10
2018-05-07T02:35:29.565Z,95.30
2018-05-07T02:37:57.881Z,95.50
2018-05-07T02:40:25.389Z,95.50
2018-05-07T02:42:52.927Z,95.60
2018-05-07T02:45:20.425Z,95.80
2018-05-07T02:47:47.940Z,95.90
2018-05-07T02:50:16.248Z,96.00
2018-05-07T02:52:43.761Z,96.00
2018-05-07T02:55:11.281Z,96.00
2018-05-07T02:57:38.787Z,96.10
2018-05-07T03:00:06.277Z,96.10
2018-05-07T03:08:19.572Z,96.70
2018-05-07T03:10:47.089Z,96.90
2018-05-07T03:13:15.378Z,97.10
2018-05-07T03:15:43.632Z,97.00
2018-05-07T03:18:11.152Z,97.00
2018-05-07T03:20:38.655Z,96.80
2018-05-07T03:23:06.179Z,97.00
2018-05-07T03:25:34.475Z,97.30
2018-05-07T03:28:01.991Z,97.30
2018-05-07T03:30:29.537Z,97.40
2018-05-07T03:32:57.093Z,97.80
2018-05-07T03:35:24.625Z,98.10
2018-05-07T03:37:52.160Z,98.80
2018-05-07T03:40:19.681Z,99.10
2018-05-07T03:42:47.977Z,99.80
2018-05-07T03:45:16.285Z,99.90
2018-05-07T03:47:43.799Z,99.90
2018-05-07T03:50:11.360Z,99.90
2018-05-07T03:52:38.855Z,99.90
2018-05-07T03:55:06.354Z,99.90
2018-05-07T03:57:33.888Z,99.90
2018-05-07T04:00:01.417Z,99.90
2018-05-07T04:02:28.956Z,99.90
2018-05-07T04:04:57.267Z,99.90
2018-05-07T04:07:27.457Z,99.90
2018-05-07T04:09:54.914Z,99.90
2018-05-07T04:12:22.440Z,99.90
2018-05-07T04:14:49.955Z,99.90
2018-05-07T04:20:33.652Z,99.90
2018-05-07T04:23:13.081Z,99.90
2018-05-07T04:25:40.547Z,99.90
2018-05-07T04:28:08.040Z,99.90
2018-05-07T04:30:35.514Z,99.90
2018-05-07T04:33:02.992Z,99.90
2018-05-07T04:38:21.243Z,99.90
2018-05-07T04:40:48.707Z,99.90
2018-05-07T04:43:16.257Z,99.90
2018-05-07T04:45:43.650Z,99.90
2018-05-07T04:48:11.115Z,99.90
2018-05-07T04:50:38.593Z,99.90
2018-05-07T04:53:06.054Z,99.90
2018-05-07T04:55:33.518Z,99.90
2018-05-07T04:58:00.983Z,99.90
2018-05-07T05:00:28.503Z,99.90
2018-05-07T05:02:55.970Z,99.90
2018-05-07T05:05:23.451Z,99.90
2018-05-07T05:07:50.919Z,99.90
2018-05-07T05:10:18.394Z,99.90
2018-05-07T05:13:06.225Z,99.90
2018-05-07T05:15:40.857Z,99.90
2018-05-07T05:18:08.330Z,99.80
2018-05-07T05:20:35.801Z,99.40
2018-05-07T05:23:03.272Z,99.80
2018-05-07T05:25:36.434Z,99.10
2018-05-07T05:28:03.923Z,99.10
2018-05-07T05:30:31.413Z,99.00
2018-05-07T05:32:59.651Z,98.90
2018-05-07T05:35:39.118Z,98.80
2018-05-07T05:38:08.612Z,99.00
2018-05-07T05:40:36.095Z,98.30
2018-05-07T05:43:03.563Z,98.40
2018-05-07T05:48:24.098Z,97.90
2018-05-07T05:59:31.391Z,95.00
2018-05-07T06:01:58.863Z,93.90
2018-05-07T06:04:26.346Z,92.20
2018-05-07T06:06:53.819Z,92.00
2018-05-07T06:09:21.297Z,92.00
2018-05-07T06:11:48.803Z,92.90
2018-05-07T06:14:16.238Z,92.50
2018-05-07T06:16:43.703Z,92.30
2018-05-07T06:19:11.182Z,91.80
2018-05-07T06:21:38.650Z,90.60
2018-05-07T06:24:06.123Z,91.80
2018-05-07T06:26:33.595Z,91.20
2018-05-07T06:29:20.332Z,88.40
2018-05-07T06:31:47.798Z,90.60
2018-05-07T06:34:15.327Z,87.00
2018-05-07T06:36:42.743Z,88.50
2018-05-07T06:39:10.222Z,89.10
2018-05-07T06:41:55.820Z,85.20
2018-05-07T06:44:23.307Z,90.00
2018-05-07T06:46:50.775Z,89.20
2018-05-07T06:49:19.031Z,88.00
2018-05-07T06:54:45.658Z,82.70
2018-05-07T06:57:15.892Z,69.50
2018-05-07T06:59:45.337Z,66.20
2018-05-07T07:02:12.844Z,66.00
2018-05-07T07:07:45.079Z,71.50
2018-05-07T07:10:12.563Z,73.00
2018-05-07T07:12:40.035Z,78.20
2018-05-07T07:15:08.274Z,77.70
2018-05-07T07:17:35.742Z,77.70
2018-05-07T07:20:03.223Z,80.40
2018-05-07T07:22:30.686Z,82.50
2018-05-07T07:24:58.166Z,84.50
2018-05-07T07:27:25.635Z,86.00
2018-05-07T07:29:53.113Z,87.00
2018-05-07T07:32:20.583Z,83.10
2018-05-07T07:34:48.062Z,75.60
2018-05-07T07:37:15.535Z,69.80
2018-05-07T07:39:43.016Z,62.00
2018-05-07T07:42:11.271Z,54.90
2018-05-07T07:44:38.779Z,54.80
2018-05-07T07:47:07.142Z,52.60
2018-05-07T07:49:35.364Z,52.00
2018-05-07T07:52:02.868Z,51.90
2018-05-07T07:54:30.432Z,52.20
2018-05-07T07:56:57.935Z,53.60
2018-05-07T07:59:25.471Z,51.40
2018-05-07T08:01:52.991Z,56.20
2018-05-07T08:04:20.524Z,55.30
2018-05-07T08:06:48.779Z,55.80
2018-05-07T08:09:16.307Z,55.70
2018-05-07T08:11:43.826Z,53.10
2018-05-07T08:14:11.316Z,56.80
2018-05-07T08:16:38.824Z,52.50
2018-05-07T08:19:06.354Z,51.30
2018-05-07T08:21:33.875Z,49.00
2018-05-07T08:24:01.374Z,47.10
2018-05-07T08:26:29.660Z,44.60
2018-05-07T08:28:57.935Z,50.70
2018-05-07T08:31:26.892Z,49.10
2018-05-07T08:33:55.365Z,49.00
2018-05-07T08:36:22.879Z,45.80
2018-05-07T08:38:50.424Z,44.60
2018-05-07T08:41:17.960Z,41.90
2018-05-07T08:43:46.244Z,47.20
2018-05-07T08:46:14.503Z,45.90
2018-05-07T08:48:42.004Z,45.90
2018-05-07T08:51:10.328Z,45.80
2018-05-07T08:53:38.727Z,45.60
2018-05-07T08:56:06.243Z,46.60
2018-05-07T08:58:34.526Z,45.80
2018-05-07T09:01:02.028Z,45.50
2018-05-07T09:03:29.527Z,44.50
2018-05-07T09:05:57.032Z,41.20
2018-05-07T09:08:24.529Z,38.80
2018-05-07T09:10:52.791Z,37.00
2018-05-07T09:13:20.296Z,36.70
2018-05-07T09:15:47.814Z,38.10
2018-05-07T09:18:15.328Z,37.70
2018-05-07T09:20:43.604Z,43.80
2018-05-07T09:23:11.872Z,43.90
2018-05-07T09:25:39.369Z,43.70
2018-05-07T09:28:07.701Z,48.40
2018-05-07T09:30:35.211Z,48.50
2018-05-07T09:33:02.700Z,46.60
2018-05-07T09:35:30.968Z,43.70
2018-05-07T09:37:58.482Z,43.60
2018-05-07T09:40:25.995Z,38.20
2018-05-07T09:42:53.591Z,42.20
2018-05-07T09:45:21.040Z,40.30
2018-05-07T09:47:48.556Z,40.70
2018-05-07T09:50:16.055Z,41.40
2018-05-07T09:52:43.620Z,41.00
2018-05-07T09:55:11.217Z,38.20
2018-05-07T10:00:37.348Z,37.70
2018-05-07T10:03:04.818Z,37.20
2018-05-07T10:05:33.755Z,41.20
2018-05-07T10:08:18.355Z,40.10
2018-05-07T10:10:45.835Z,38.90
2018-05-07T10:13:13.304Z,40.60
2018-05-07T10:15:41.555Z,38.60
2018-05-07T10:18:09.035Z,39.00
2018-05-07T10:20:36.510Z,38.00
2018-05-07T10:23:03.979Z,38.30
2018-05-07T10:25:31.455Z,40.00
2018-05-07T10:27:58.930Z,41.60
2018-05-07T10:30:26.401Z,39.80
2018-05-07T10:32:53.919Z,40.30
2018-05-07T10:35:21.467Z,38.90
2018-05-07T10:37:48.874Z,38.20
2018-05-07T10:40:16.339Z,39.40
2018-05-07T10:42:43.852Z,38.60
2018-05-07T10:45:11.295Z,41.90
2018-05-07T10:47:38.775Z,39.50
2018-05-07T10:50:06.242Z,39.60
2018-05-07T10:52:33.717Z,38.50
2018-05-07T10:55:01.189Z,35.60
2018-05-07T10:57:28.667Z,40.50
2018-05-07T10:59:56.137Z,37.60
2018-05-07T11:02:23.615Z,34.00
2018-05-07T11:04:51.082Z,36.10
2018-05-07T11:07:18.591Z,39.60
2018-05-07T11:09:46.798Z,33.90
2018-05-07T11:12:14.277Z,34.10
2018-05-07T11:14:41.742Z,31.90
2018-05-07T11:17:09.975Z,35.10
2018-05-07T11:19:38.237Z,32.00
2018-05-07T11:22:05.687Z,31.90
2018-05-07T11:24:33.926Z,36.50
2018-05-07T11:27:02.164Z,38.50
2018-05-07T11:29:29.659Z,38.30
2018-05-07T11:31:57.130Z,38.70
2018-05-07T11:34:24.599Z,38.70
2018-05-07T11:36:53.096Z,38.40
2018-05-07T11:39:20.561Z,35.30
2018-05-07T11:41:48.043Z,37.50
2018-05-07T11:44:16.358Z,36.30
2018-05-07T11:46:44.599Z,34.30
2018-05-07T11:49:12.079Z,34.20
2018-05-07T11:51:39.700Z,39.10
2018-05-07T11:54:07.154Z,36.80
2018-05-07T11:56:35.488Z,38.20
2018-05-07T11:59:02.983Z,38.20
2018-05-07T12:01:30.455Z,33.60
2018-05-07T12:03:57.923Z,35.40
2018-05-07T12:06:25.401Z,34.00
2018-05-07T12:08:52.861Z,34.50
2018-05-07T12:14:20.606Z,34.60
2018-05-07T12:16:48.848Z,34.80
2018-05-07T12:19:16.380Z,34.80
2018-05-07T12:21:43.851Z,28.90
2018-05-07T12:24:11.318Z,30.50
2018-05-07T12:26:38.798Z,34.40
2018-05-07T12:29:06.269Z,33.00
2018-05-07T12:31:33.876Z,31.90
2018-05-07T12:34:01.219Z,31.80
2018-05-07T12:36:28.733Z,30.00
2018-05-07T12:38:56.261Z,33.60
2018-05-07T12:41:23.736Z,34.70
2018-05-07T12:43:51.209Z,34.20
2018-05-07T12:46:19.442Z,31.80
2018-05-07T12:48:47.679Z,34.80
2018-05-07T12:51:15.166Z,34.70
2018-05-07T12:53:42.635Z,31.00
2018-05-07T12:56:10.115Z,31.80
2018-05-07T12:58:37.591Z,31.90
2018-05-07T13:01:05.119Z,31.90
2018-05-07T13:03:32.609Z,32.30
2018-05-07T13:06:00.079Z,32.40
2018-05-07T13:08:27.587Z,31.10
2018-05-07T13:10:56.799Z,31.10
2018-05-07T13:13:25.044Z,30.70
2018-05-07T13:15:52.508Z,30.70
2018-05-07T13:18:19.983Z,36.60
2018-05-07T13:20:47.463Z,38.10
2018-05-07T13:23:14.935Z,39.80
2018-05-07T13:25:42.410Z,42.50
2018-05-07T13:28:09.889Z,38.40
2018-05-07T13:30:37.350Z,36.90
2018-05-07T13:33:04.827Z,38.30
2018-05-07T13:35:32.297Z,39.40
2018-05-07T13:37:59.770Z,37.80
2018-05-07T13:40:27.242Z,37.60
2018-05-07T13:42:54.723Z,40.00
2018-05-07T13:45:22.953Z,40.30
2018-05-07T13:47:50.450Z,40.30
2018-05-07T13:50:17.907Z,38.50
2018-05-07T13:52:45.523Z,41.10
2018-05-07T13:55:13.750Z,41.40
2018-05-07T13:57:48.704Z,41.40
2018-05-07T14:03:24.383Z,44.80
2018-05-07T14:05:51.837Z,42.90
2018-05-07T14:08:19.415Z,43.20
2018-05-07T14:10:46.895Z,41.70
2018-05-07T14:13:14.383Z,42.50
2018-05-07T14:15:48.235Z,42.60
2018-05-07T14:18:16.259Z,41.60
2018-05-07T14:20:43.735Z,40.10
2018-05-07T14:23:11.226Z,41.50
2018-05-07T14:25:38.695Z,42.10
2018-05-07T14:28:06.178Z,41.70
2018-05-07T14:30:33.646Z,41.70
2018-05-07T14:33:01.119Z,41.70
2018-05-07T14:35:28.592Z,41.80
2018-05-07T14:37:56.292Z,42.60
2018-05-07T14:40:29.618Z,44.60
2018-05-07T14:42:57.883Z,43.90
2018-05-07T14:45:25.358Z,43.90
2018-05-07T14:47:52.835Z,43.80
2018-05-07T14:50:21.158Z,42.60
2018-05-07T14:52:48.555Z,41.90
2018-05-07T14:55:19.959Z,42.20
2018-05-07T14:57:48.198Z,41.80
2018-05-07T15:00:15.699Z,41.90
2018-05-07T15:02:43.179Z,43.00
2018-05-07T15:05:24.680Z,45.50
2018-05-07T15:07:52.161Z,45.50
2018-05-07T15:10:20.391Z,42.00
2018-05-07T15:12:55.059Z,41.90
2018-05-07T15:15:22.577Z,40.70
2018-05-07T15:17:50.068Z,38.40
2018-05-07T15:20:31.886Z,40.30
2018-05-07T15:22:59.355Z,40.70
2018-05-07T15:25:26.834Z,41.90
2018-05-07T15:27:54.357Z,40.90
2018-05-07T15:30:22.584Z,41.80
2018-05-07T15:32:50.245Z,41.80
2018-05-07T15:35:17.923Z,42.50
2018-05-07T15:37:45.451Z,42.80
2018-05-07T15:40:14.170Z,42.90
2018-05-07T15:42:41.679Z,42.10
2018-05-07T15:45:09.246Z,40.90
2018-05-07T15:47:36.641Z,42.40
2018-05-07T15:50:04.782Z,42.90
2018-05-07T15:52:32.287Z,43.00
2018-05-07T15:54:59.770Z,43.70
2018-05-07T15:57:27.255Z,42.70
2018-05-07T15:59:55.490Z,43.50
2018-05-07T16:02:23.463Z,43.50
2018-05-07T16:04:51.084Z,46.20
2018-05-07T16:07:18.682Z,45.80
2018-05-07T16:09:46.166Z,43.50
2018-05-07T16:12:13.638Z,44.60
2018-05-07T16:14:43.203Z,46.20
2018-05-07T16:17:10.684Z,46.70
2018-05-07T16:19:38.155Z,46.10
2018-05-07T16:22:06.507Z,47.50
2018-05-07T16:24:34.760Z,47.30
2018-05-07T16:27:23.723Z,47.90
2018-05-07T16:29:53.002Z,49.10
2018-05-07T16:32:20.470Z,49.00
2018-05-07T16:34:47.982Z,47.00
2018-05-07T16:37:18.533Z,50.20
2018-05-07T16:39:46.050Z,48.60
2018-05-07T16:42:13.523Z,49.30
2018-05-07T16:44:41.764Z,48.70
2018-05-07T16:47:09.183Z,48.80
2018-05-07T16:49:36.666Z,50.30
2018-05-07T16:52:04.139Z,49.00
2018-05-07T16:54:31.623Z,49.10
2018-05-07T16:56:59.867Z,49.00
2018-05-07T16:59:28.123Z,50.00
2018-05-07T17:01:55.659Z,50.00
2018-05-07T17:04:23.269Z,50.00
2018-05-07T17:06:50.778Z,52.30
2018-05-07T17:09:18.254Z,51.50
2018-05-07T17:11:46.004Z,52.50
2018-05-07T17:14:13.486Z,52.80
2018-05-07T17:16:40.938Z,51.90
2018-05-07T17:19:08.462Z,52.00
2018-05-07T17:21:36.711Z,54.80
2018-05-07T17:24:04.187Z,54.50
2018-05-07T17:26:31.679Z,54.50
2018-05-07T17:28:59.159Z,54.90
2018-05-07T17:31:26.681Z,55.60
2018-05-07T17:33:54.278Z,56.20
2018-05-07T17:36:22.450Z,55.50
2018-05-07T17:38:49.943Z,55.90
2018-05-07T17:41:17.490Z,55.90
2018-05-07T17:43:44.987Z,56.50
2018-05-07T17:49:33.675Z,59.10
2018-05-07T17:52:01.496Z,58.90
2018-05-07T17:54:29.837Z,59.90
2018-05-07T17:56:57.225Z,59.90
2018-05-07T17:59:25.538Z,65.30
2018-05-07T18:01:52.995Z,65.30
2018-05-07T18:04:21.242Z,65.50
2018-05-07T18:06:48.722Z,65.50
2018-05-07T18:09:18.265Z,63.80
2018-05-07T18:11:45.730Z,66.10
2018-05-07T18:14:13.202Z,68.70
2018-05-07T18:16:40.687Z,71.20
2018-05-07T18:19:09.565Z,71.00
2018-05-07T18:21:37.027Z,70.80
2018-05-07T18:24:04.503Z,70.70
2018-05-07T18:26:32.035Z,73.30
2018-05-07T18:28:59.456Z,72.90
2018-05-07T18:31:26.928Z,74.80
2018-05-07T18:33:55.676Z,77.40
2018-05-07T18:36:23.158Z,78.90
2018-05-07T18:38:50.674Z,79.30
2018-05-07T18:41:18.146Z,81.70
2018-05-07T18:43:45.631Z,84.90
2018-05-07T18:46:13.893Z,91.00
2018-05-07T18:48:41.367Z,90.80
2018-05-07T18:51:08.839Z,91.30
2018-05-07T18:53:37.092Z,94.30
2018-05-07T18:56:04.572Z,94.20
2018-05-07T18:58:32.063Z,94.50
2018-05-07T19:00:59.659Z,95.10
2018-05-07T19:03:27.173Z,95.30
2018-05-07T19:05:55.461Z,95.30
2018-05-07T19:08:22.963Z,95.20
2018-05-07T19:10:50.455Z,96.00
2018-05-07T19:13:19.068Z,94.80
2018-05-07T19:15:46.600Z,94.80
2018-05-07T19:18:14.897Z,95.80
2018-05-07T19:20:59.179Z,95.80
2018-05-07T19:23:26.675Z,96.60
2018-05-07T19:25:54.212Z,96.40
2018-05-07T19:28:21.728Z,96.30
2018-05-07T19:30:49.289Z,96.20
2018-05-07T19:33:17.651Z,96.40
2018-05-07T19:35:45.163Z,96.40
2018-05-07T19:38:12.712Z,96.20
2018-05-07T19:40:40.229Z,96.30
2018-05-07T19:43:07.879Z,96.00
2018-05-07T19:45:35.396Z,96.00
2018-05-07T19:48:03.737Z,96.40
2018-05-07T19:50:31.265Z,96.00
2018-05-07T19:52:58.856Z,94.60
2018-05-07T19:55:26.368Z,92.60
2018-05-07T19:57:53.896Z,90.20
2018-05-07T20:00:21.392Z,86.00
2018-05-07T20:02:56.256Z,81.60
2018-05-07T20:05:24.644Z,76.90
2018-05-07T20:07:52.152Z,76.30
2018-05-07T20:10:20.509Z,75.20
2018-05-07T20:12:48.020Z,75.20
2018-05-07T20:15:16.291Z,77.90
2018-05-07T20:17:43.820Z,77.70
2018-05-07T20:20:11.347Z,77.00
2018-05-07T20:22:39.616Z,74.90
2018-05-07T20:25:07.116Z,74.10
2018-05-07T20:27:36.103Z,73.70
2018-05-07T20:30:03.646Z,73.70
2018-05-07T20:35:24.903Z,71.20
2018-05-07T20:37:52.429Z,71.50
2018-05-07T20:40:20.816Z,69.80
2018-05-07T20:42:48.468Z,69.80
2018-05-07T20:45:16.733Z,73.90
2018-05-07T20:47:44.268Z,73.30
2018-05-07T20:50:11.793Z,73.20
2018-05-07T20:52:39.300Z,72.40
2018-05-07T20:55:07.851Z,73.50
2018-05-07T20:57:35.336Z,73.10
2018-05-07T21:00:03.624Z,66.50
2018-05-07T21:02:31.156Z,67.00
2018-05-07T21:04:59.971Z,65.70
2018-05-07T21:07:27.519Z,64.50
2018-05-07T21:09:55.036Z,64.00
2018-05-07T21:12:22.523Z,64.20
2018-05-07T21:14:52.233Z,64.60
2018-05-07T21:17:43.560Z,64.60
2018-05-07T21:20:11.839Z,62.90
2018-05-07T21:22:39.332Z,62.90
2018-05-07T21:25:08.223Z,63.30
2018-05-07T21:27:35.740Z,63.20
2018-05-07T21:30:04.392Z,62.90
2018-05-07T21:32:32.655Z,62.50
2018-05-07T21:35:00.155Z,61.80
2018-05-07T21:37:27.666Z,62.10
2018-05-07T21:39:55.160Z,62.20
2018-05-07T21:42:22.666Z,62.30
2018-05-07T21:44:50.168Z,62.30
2018-05-07T21:47:17.678Z,63.90
2018-05-07T21:49:45.520Z,64.00
2018-05-07T21:52:13.085Z,65.90
2018-05-07T21:54:40.577Z,66.60
2018-05-07T21:57:08.119Z,68.50
2018-05-07T21:59:35.643Z,71.10
2018-05-07T22:02:03.152Z,72.90
2018-05-07T22:04:31.431Z,74.10
2018-05-07T22:06:59.701Z,76.30
2018-05-07T22:09:28.379Z,76.30
2018-05-07T22:11:55.889Z,76.00
2018-05-07T22:14:25.255Z,78.30
2018-05-07T22:16:54.024Z,78.40
2018-05-07T22:19:22.312Z,80.80
2018-05-07T22:21:49.812Z,80.90
2018-05-07T22:24:17.331Z,80.70
2018-05-07T22:26:45.659Z,84.20
2018-05-07T22:29:13.183Z,84.20
2018-05-07T22:31:40.701Z,85.30
2018-05-07T22:34:08.216Z,88.70
2018-05-07T22:36:35.715Z,89.20
2018-05-07T22:39:04.031Z,91.50
2018-05-07T22:41:31.502Z,91.50
2018-05-07T22:52:39.864Z,93.60
2018-05-07T22:55:07.378Z,93.80
2018-05-07T22:57:34.892Z,94.10
2018-05-07T23:00:02.425Z,94.70
2018-05-07T23:02:29.922Z,94.20
2018-05-07T23:04:57.447Z,94.50
2018-05-07T23:07:25.795Z,95.10
2018-05-07T23:09:53.282Z,95.10
2018-05-07T23:12:20.847Z,95.60
2018-05-07T23:14:48.386Z,95.90
2018-05-07T23:17:15.941Z,96.50
2018-05-07T23:19:44.306Z,97.10
2018-05-07T23:22:11.828Z,97.00
2018-05-07T23:24:39.320Z,96.70
2018-05-07T23:27:06.825Z,96.90
2018-05-07T23:29:35.108Z,97.20
2018-05-07T23:32:03.411Z,96.50
2018-05-07T23:34:33.694Z,96.00
2018-05-07T23:37:01.233Z,95.90
2018-05-07T23:39:28.762Z,95.50
2018-05-07T23:41:56.281Z,95.30
2018-05-07T23:44:23.775Z,94.70
2018-05-07T23:46:51.280Z,94.90
2018-05-07T23:49:18.777Z,94.90
2018-05-07T23:51:46.280Z,94.40
2018-05-07T23:54:13.791Z,94.20
2018-05-07T23:56:41.315Z,94.10
2018-05-07T23:59:08.843Z,93.80
